createdAt,value
2022-12-19T00:00:06.765Z,68.49
2022-12-19T00:03:13.975Z,68.29
2022-12-19T00:06:17.721Z,68.06
2022-12-19T00:09:21.726Z,68.09
2022-12-19T00:12:24.251Z,67.92
2022-12-19T00:15:26.810Z,68.28
2022-12-19T00:18:29.560Z,68.08
2022-12-19T00:21:34.950Z,67.40
2022-12-19T00:24:39.308Z,67.35
2022-12-19T00:27:41.680Z,67.17
2022-12-19T00:30:44.256Z,67.22
2022-12-19T00:33:47.416Z,66.85
2022-12-19T00:36:50.119Z,67.27
2022-12-19T00:39:54.048Z,67.67
2022-12-19T00:42:56.612Z,67.43
2022-12-19T00:46:03.573Z,67.56
2022-12-19T00:49:07.231Z,67.50
2022-12-19T00:52:09.907Z,68.12
2022-12-19T00:55:18.775Z,68.30
2022-12-19T00:58:22.149Z,68.40
2022-12-19T01:01:26.951Z,68.60
2022-12-19T01:04:31.269Z,68.47
2022-12-19T01:07:35.114Z,67.95
2022-12-19T01:10:39.333Z,67.57
2022-12-19T01:13:41.102Z,66.97
2022-12-19T01:16:44.697Z,66.86
2022-12-19T01:19:47.271Z,66.82
2022-12-19T01:22:49.872Z,67.26
2022-12-19T01:25:55.430Z,67.50
2022-12-19T01:28:58.056Z,67.48
2022-12-19T01:32:00.727Z,67.51
2022-12-19T01:35:03.370Z,67.29
2022-12-19T01:38:08.553Z,67.61
2022-12-19T01:41:12.736Z,67.69
2022-12-19T01:44:15.089Z,67.99
2022-12-19T01:47:17.854Z,67.46
2022-12-19T01:50:23.205Z,67.69
2022-12-19T01:53:29.243Z,67.72
2022-12-19T01:56:36.079Z,67.56
2022-12-19T01:59:41.533Z,67.57
2022-12-19T02:02:46.509Z,67.62
2022-12-19T02:05:49.321Z,67.21
2022-12-19T02:08:52.470Z,68.10
2022-12-19T02:11:56.421Z,68.09
2022-12-19T02:15:02.535Z,68.25
2022-12-19T02:18:12.546Z,68.09
2022-12-19T02:21:34.725Z,67.77
2022-12-19T02:25:01.593Z,68.24
2022-12-19T02:28:17.422Z,68.34
2022-12-19T02:31:26.849Z,68.50
2022-12-19T02:34:32.879Z,68.16
2022-12-19T02:37:38.539Z,68.65
2022-12-19T02:40:43.545Z,68.28
2022-12-19T02:43:49.067Z,67.83
2022-12-19T02:46:57.914Z,68.56
2022-12-19T02:50:00.862Z,68.20
2022-12-19T02:53:03.407Z,68.97
2022-12-19T02:56:23.202Z,68.86
2022-12-19T02:59:36.859Z,68.73
2022-12-19T03:03:00.413Z,69.00
2022-12-19T03:06:04.859Z,69.02
2022-12-19T03:09:12.694Z,69.37
2022-12-19T03:12:19.791Z,69.41
2022-12-19T03:15:23.192Z,69.39
2022-12-19T03:18:27.762Z,69.88
2022-12-19T03:21:33.949Z,69.65
2022-12-19T03:24:36.599Z,69.56
2022-12-19T03:27:40.447Z,69.81
2022-12-19T03:30:44.297Z,69.88
2022-12-19T03:33:48.337Z,69.15
2022-12-19T03:36:55.018Z,69.09
2022-12-19T03:40:03.956Z,68.99
2022-12-19T03:43:10.397Z,69.76
2022-12-19T03:46:16.839Z,69.69
2022-12-19T03:49:20.915Z,70.01
2022-12-19T03:52:27.697Z,69.65
2022-12-19T03:55:34.182Z,70.33
2022-12-19T03:58:39.990Z,70.47
2022-12-19T04:01:43.373Z,70.11
2022-12-19T04:04:50.028Z,69.73
2022-12-19T04:07:54.893Z,70.23
2022-12-19T04:11:02.025Z,69.74
2022-12-19T04:14:07.924Z,69.81
2022-12-19T04:17:14.664Z,69.57
2022-12-19T04:20:20.580Z,68.70
2022-12-19T04:23:26.125Z,69.34
2022-12-19T04:26:29.342Z,69.00
2022-12-19T04:29:33.523Z,69.55
2022-12-19T04:32:36.910Z,70.46
2022-12-19T04:35:40.892Z,70.82
2022-12-19T04:38:43.521Z,70.70
2022-12-19T04:41:46.201Z,70.66
2022-12-19T04:44:48.845Z,70.77
2022-12-19T04:47:51.426Z,70.93
2022-12-19T04:50:56.499Z,71.62
2022-12-19T04:53:59.196Z,71.05
2022-12-19T04:57:01.830Z,71.35
2022-12-19T05:00:07.068Z,71.24
2022-12-19T05:03:09.713Z,70.86
2022-12-19T05:06:15.153Z,71.53
2022-12-19T05:09:18.014Z,71.11
2022-12-19T05:12:20.745Z,71.80
2022-12-19T05:15:23.490Z,71.93
2022-12-19T05:18:26.572Z,71.97
2022-12-19T05:21:30.438Z,70.58
2022-12-19T05:24:32.966Z,70.80
2022-12-19T05:27:36.192Z,71.20
2022-12-19T05:30:38.769Z,72.19
2022-12-19T05:33:42.190Z,72.35
2022-12-19T05:36:46.634Z,72.37
2022-12-19T05:39:49.228Z,72.54
2022-12-19T05:42:51.869Z,72.23
2022-12-19T05:45:55.730Z,72.93
2022-12-19T05:48:59.290Z,72.76
2022-12-19T05:52:03.767Z,73.13
2022-12-19T05:55:12.117Z,73.52
2022-12-19T05:58:14.811Z,73.42
2022-12-19T06:01:19.640Z,72.77
2022-12-19T06:04:22.305Z,72.75
2022-12-19T06:07:26.626Z,72.69
2022-12-19T06:10:29.182Z,72.52
2022-12-19T06:13:32.334Z,72.39
2022-12-19T06:16:34.950Z,72.54
2022-12-19T06:19:37.600Z,72.27
2022-12-19T06:22:41.815Z,72.39
2022-12-19T06:25:44.318Z,72.21
2022-12-19T06:28:47.103Z,72.74
2022-12-19T06:31:49.925Z,72.30
2022-12-19T06:35:09.450Z,72.63
2022-12-19T06:38:13.664Z,72.47
2022-12-19T06:41:34.023Z,72.12
2022-12-19T06:44:36.922Z,72.31
2022-12-19T06:47:39.521Z,72.43
2022-12-19T06:50:42.465Z,72.32
2022-12-19T06:53:46.460Z,73.15
2022-12-19T06:56:49.328Z,72.63
2022-12-19T06:59:51.978Z,72.47
2022-12-19T07:02:54.866Z,72.58
2022-12-19T07:05:57.585Z,72.27
2022-12-19T07:09:01.469Z,72.54
2022-12-19T07:12:06.240Z,73.02
2022-12-19T07:15:09.216Z,73.15
2022-12-19T07:18:12.049Z,72.77
2022-12-19T07:21:14.726Z,73.62
2022-12-19T07:24:18.826Z,74.24
2022-12-19T07:27:29.738Z,73.73
2022-12-19T07:30:36.503Z,73.01
2022-12-19T07:33:39.151Z,73.54
2022-12-19T07:36:41.737Z,73.80
2022-12-19T07:39:46.307Z,73.52
2022-12-19T07:42:49.168Z,72.79
2022-12-19T07:45:55.042Z,72.48
2022-12-19T07:49:01.262Z,72.73
2022-12-19T07:52:04.620Z,72.34
2022-12-19T07:55:09.991Z,71.83
2022-12-19T07:58:12.557Z,71.80
2022-12-19T08:01:15.203Z,71.84
2022-12-19T08:04:17.833Z,71.50
2022-12-19T08:07:20.438Z,71.77
2022-12-19T08:10:24.538Z,71.67
2022-12-19T08:13:30.066Z,71.65
2022-12-19T08:16:55.750Z,70.99
2022-12-19T08:19:59.873Z,70.82
2022-12-19T08:23:02.426Z,70.52
2022-12-19T08:26:08.927Z,70.03
2022-12-19T08:29:11.509Z,69.17
2022-12-19T08:32:20.472Z,68.86
2022-12-19T08:35:23.705Z,68.96
2022-12-19T08:38:26.732Z,69.38
2022-12-19T08:41:30.726Z,69.75
2022-12-19T08:44:34.053Z,69.28
2022-12-19T08:47:36.717Z,68.52
2022-12-19T08:50:39.360Z,68.11
2022-12-19T08:53:43.061Z,67.87
2022-12-19T08:56:47.316Z,67.16
2022-12-19T08:59:50.094Z,67.72
2022-12-19T09:02:54.010Z,67.77
2022-12-19T09:06:07.035Z,67.91
2022-12-19T09:09:13.121Z,67.42
2022-12-19T09:12:17.623Z,66.74
2022-12-19T09:15:20.395Z,66.06
2022-12-19T09:18:24.195Z,66.98
2022-12-19T09:21:28.934Z,65.53
2022-12-19T09:24:31.613Z,65.68
2022-12-19T09:28:01.190Z,64.88
2022-12-19T09:30:59.202Z,64.88
2022-12-19T09:34:02.422Z,63.89
2022-12-19T09:37:05.116Z,64.04
2022-12-19T09:40:11.030Z,63.95
2022-12-19T09:43:23.726Z,63.35
2022-12-19T09:46:32.626Z,62.37
2022-12-19T09:49:39.939Z,61.51
2022-12-19T09:52:51.052Z,61.07
2022-12-19T09:55:54.213Z,60.43
2022-12-19T09:59:02.664Z,60.44
2022-12-19T10:02:19.146Z,59.71
2022-12-19T10:05:52.333Z,60.92
2022-12-19T10:10:03.910Z,60.31
2022-12-19T10:12:39.946Z,58.27
2022-12-19T10:15:56.152Z,56.54
2022-12-19T10:19:04.932Z,55.36
2022-12-19T10:22:18.699Z,56.48
2022-12-19T10:25:38.602Z,57.03
2022-12-19T10:28:52.931Z,57.16
2022-12-19T10:32:01.602Z,58.59
2022-12-19T10:35:13.945Z,58.05
2022-12-19T10:38:23.623Z,57.84
2022-12-19T10:41:27.974Z,56.95
2022-12-19T10:44:31.706Z,56.94
2022-12-19T10:47:35.655Z,56.40
2022-12-19T10:50:38.211Z,57.83
2022-12-19T10:53:40.893Z,57.63
2022-12-19T10:56:47.926Z,57.41
2022-12-19T10:59:56.541Z,57.66
2022-12-19T11:03:12.895Z,57.71
2022-12-19T11:06:43.442Z,57.08
2022-12-19T11:09:54.723Z,58.05
2022-12-19T11:18:26.837Z,57.71
2022-12-19T11:22:07.370Z,57.98
2022-12-19T11:29:25.302Z,58.23
2022-12-19T11:29:25.646Z,58.06
2022-12-19T11:30:39.631Z,56.55
2022-12-19T11:34:29.765Z,56.54
2022-12-19T11:37:39.075Z,56.17
2022-12-19T11:40:49.548Z,56.45
2022-12-19T11:43:55.164Z,55.91
2022-12-19T11:47:03.773Z,55.00
2022-12-19T11:50:13.027Z,55.11
2022-12-19T11:53:22.221Z,56.16
2022-12-19T11:56:27.774Z,57.45
2022-12-19T11:59:32.843Z,56.67
2022-12-19T12:02:50.677Z,56.49
2022-12-19T12:05:55.330Z,55.42
2022-12-19T12:11:13.041Z,56.15
2022-12-19T12:20:33.143Z,56.54
2022-12-19T12:28:52.489Z,55.47
2022-12-19T12:31:01.414Z,53.12
2022-12-19T12:31:38.890Z,52.23
2022-12-19T12:32:03.363Z,52.46
2022-12-19T12:32:05.580Z,52.93
2022-12-19T12:35:47.066Z,53.45
2022-12-19T12:40:36.278Z,54.27
2022-12-19T12:44:01.741Z,55.19
2022-12-19T12:47:11.375Z,56.53
2022-12-19T12:50:17.211Z,56.95
2022-12-19T12:53:22.947Z,56.33
2022-12-19T12:56:25.891Z,55.53
2022-12-19T12:59:31.337Z,54.99
2022-12-19T13:02:34.240Z,54.61
2022-12-19T13:05:53.707Z,53.99
2022-12-19T13:09:03.865Z,54.76
2022-12-19T13:12:35.135Z,54.88
2022-12-19T13:15:41.202Z,54.17
2022-12-19T13:19:04.262Z,54.07
2022-12-19T13:22:38.568Z,53.06
2022-12-19T13:25:50.526Z,51.73
2022-12-19T13:28:53.258Z,53.14
2022-12-19T13:32:11.781Z,53.82
2022-12-19T13:36:44.690Z,54.48
2022-12-19T13:39:54.294Z,56.05
2022-12-19T13:42:41.789Z,56.89
2022-12-19T13:45:50.481Z,58.28
2022-12-19T13:48:57.748Z,59.15
2022-12-19T13:52:00.899Z,59.09
2022-12-19T13:55:03.620Z,60.20
2022-12-19T13:58:06.428Z,60.46
2022-12-19T14:01:21.495Z,61.11
2022-12-19T14:04:30.159Z,61.75
2022-12-19T14:07:37.397Z,62.41
2022-12-19T14:11:34.826Z,62.63
2022-12-19T14:14:33.358Z,63.20
2022-12-19T14:17:36.081Z,64.53
2022-12-19T14:22:09.531Z,65.87
2022-12-19T14:24:15.088Z,66.01
2022-12-19T14:28:23.736Z,66.31
2022-12-19T14:30:42.690Z,66.45
2022-12-19T14:34:10.964Z,67.35
2022-12-19T14:38:54.236Z,67.40
2022-12-19T14:41:07.823Z,67.85
2022-12-19T14:54:03.816Z,68.32
2022-12-19T14:54:14.618Z,69.47
2022-12-19T14:54:17.043Z,69.11
2022-12-19T14:58:53.971Z,71.07
2022-12-19T15:01:23.320Z,70.87
2022-12-19T15:04:50.875Z,72.25
2022-12-19T15:07:53.081Z,72.43
2022-12-19T15:11:40.104Z,73.29
2022-12-19T15:14:51.619Z,73.74
2022-12-19T15:17:58.324Z,73.43
2022-12-19T15:21:02.668Z,74.65
2022-12-19T15:24:05.703Z,74.81
2022-12-19T15:27:13.749Z,74.89
2022-12-19T15:30:18.684Z,75.11
2022-12-19T15:33:21.442Z,75.13
2022-12-19T15:36:24.177Z,75.67
2022-12-19T15:39:29.781Z,75.26
2022-12-19T15:42:34.674Z,75.51
2022-12-19T15:45:37.301Z,76.51
2022-12-19T15:48:41.655Z,76.55
2022-12-19T15:51:44.498Z,76.74
2022-12-19T15:54:49.143Z,76.54
2022-12-19T15:57:56.603Z,77.08
2022-12-19T16:01:01.455Z,77.07
2022-12-19T16:04:04.462Z,77.52
2022-12-19T16:07:13.689Z,77.92
2022-12-19T16:10:17.358Z,77.44
2022-12-19T16:13:23.534Z,77.88
2022-12-19T16:16:26.350Z,77.72
2022-12-19T16:19:31.164Z,77.44
2022-12-19T16:22:33.845Z,77.31
2022-12-19T16:25:39.635Z,77.56
2022-12-19T16:28:44.203Z,77.67
2022-12-19T16:31:47.161Z,78.10
2022-12-19T16:34:49.935Z,77.99
2022-12-19T16:37:52.629Z,78.05
2022-12-19T16:40:57.763Z,78.63
2022-12-19T16:44:01.967Z,78.24
2022-12-19T16:47:04.835Z,78.42
2022-12-19T16:50:15.664Z,78.73
2022-12-19T16:53:18.753Z,79.40
2022-12-19T16:56:25.305Z,79.61
2022-12-19T16:59:32.358Z,79.61
2022-12-19T17:02:43.602Z,79.41
2022-12-19T17:05:46.449Z,79.68
2022-12-19T17:08:49.787Z,79.62
2022-12-19T17:11:55.088Z,79.50
2022-12-19T17:14:59.623Z,79.71
2022-12-19T17:18:04.858Z,79.57
2022-12-19T17:21:07.686Z,80.61
2022-12-19T17:24:13.790Z,79.88
2022-12-19T17:27:17.397Z,80.07
2022-12-19T17:30:22.678Z,79.70
2022-12-19T17:33:37.368Z,80.27
2022-12-19T17:36:40.221Z,79.85
2022-12-19T17:39:43.084Z,79.96
2022-12-19T17:42:45.800Z,79.11
2022-12-19T17:45:50.952Z,78.49
2022-12-19T17:48:54.576Z,77.92
2022-12-19T17:51:57.245Z,77.97
2022-12-19T17:54:59.855Z,77.93
2022-12-19T17:58:02.566Z,78.55
2022-12-19T18:01:06.946Z,79.53
2022-12-19T18:04:13.655Z,80.08
2022-12-19T18:07:17.009Z,80.00
2022-12-19T18:10:22.582Z,79.93
2022-12-19T18:13:26.092Z,79.86
2022-12-19T18:16:31.152Z,79.94
2022-12-19T18:19:35.561Z,79.63
2022-12-19T18:22:38.255Z,79.43
2022-12-19T18:25:41.132Z,78.74
2022-12-19T18:28:44.245Z,78.76
2022-12-19T18:31:51.175Z,78.83
2022-12-19T18:34:54.207Z,78.86
2022-12-19T18:37:59.073Z,78.84
2022-12-19T18:41:01.843Z,78.93
2022-12-19T18:44:04.457Z,79.19
2022-12-19T18:47:17.916Z,79.35
2022-12-19T18:50:22.499Z,79.36
2022-12-19T18:53:34.589Z,79.42
2022-12-19T18:56:38.096Z,79.30
2022-12-19T18:59:40.646Z,79.24
2022-12-19T19:02:47.915Z,79.37
2022-12-19T19:05:50.798Z,79.26
2022-12-19T19:08:53.685Z,79.43
2022-12-19T19:11:56.413Z,79.04
2022-12-19T19:14:59.053Z,79.19
2022-12-19T19:18:04.285Z,78.90
2022-12-19T19:21:07.763Z,79.19
2022-12-19T19:24:13.508Z,79.25
2022-12-19T19:27:16.120Z,79.26
2022-12-19T19:30:19.734Z,79.37
2022-12-19T19:33:26.150Z,79.43
2022-12-19T19:36:30.961Z,80.04
2022-12-19T19:39:34.900Z,80.06
2022-12-19T19:42:37.734Z,80.19
2022-12-19T19:45:43.438Z,80.15
2022-12-19T19:48:47.863Z,80.65
2022-12-19T19:51:52.347Z,80.62
2022-12-19T19:54:57.060Z,80.43
2022-12-19T19:57:59.835Z,80.05
2022-12-19T20:01:08.277Z,79.64
2022-12-19T20:04:12.348Z,80.07
2022-12-19T20:07:15.510Z,79.99
2022-12-19T20:10:18.469Z,79.86
2022-12-19T20:13:21.631Z,79.62
2022-12-19T20:16:24.994Z,79.80
2022-12-19T20:19:29.241Z,79.58
2022-12-19T20:22:32.158Z,79.12
2022-12-19T20:25:39.822Z,78.99
2022-12-19T20:28:48.332Z,78.98
2022-12-19T20:31:52.035Z,79.22
2022-12-19T20:34:56.093Z,78.82
2022-12-19T20:37:58.838Z,78.51
2022-12-19T20:41:01.580Z,78.46
2022-12-19T20:44:04.509Z,78.44
2022-12-19T20:47:07.259Z,78.47
2022-12-19T20:50:13.172Z,78.58
2022-12-19T20:53:15.822Z,78.63
2022-12-19T20:56:19.740Z,78.58
2022-12-19T20:59:22.542Z,77.98
2022-12-19T21:02:25.392Z,78.38
2022-12-19T21:05:29.903Z,78.64
2022-12-19T21:08:32.690Z,78.52
2022-12-19T21:11:36.558Z,78.57
2022-12-19T21:14:39.045Z,78.87
2022-12-19T21:17:41.644Z,78.54
2022-12-19T21:20:46.211Z,78.53
2022-12-19T21:23:49.113Z,78.17
2022-12-19T21:26:57.670Z,78.31
2022-12-19T21:30:01.006Z,78.11
2022-12-19T21:33:03.997Z,78.22
2022-12-19T21:36:09.531Z,78.34
2022-12-19T21:39:12.822Z,78.10
2022-12-19T21:42:15.442Z,78.13
2022-12-19T21:45:18.349Z,78.60
2022-12-19T21:48:20.919Z,78.26
2022-12-19T21:51:26.404Z,78.53
2022-12-19T21:54:29.072Z,78.41
2022-12-19T21:57:31.785Z,78.63
2022-12-19T22:00:34.468Z,78.91
2022-12-19T22:03:37.687Z,78.80
2022-12-19T22:06:41.806Z,78.89
2022-12-19T22:09:44.395Z,78.82
2022-12-19T22:12:46.934Z,78.64
2022-12-19T22:15:49.559Z,79.25
2022-12-19T22:18:52.954Z,78.66
2022-12-19T22:21:57.207Z,78.37
2022-12-19T22:24:59.947Z,78.51
2022-12-19T22:28:02.762Z,78.79
2022-12-19T22:31:14.289Z,78.61
2022-12-19T22:34:18.571Z,78.53
2022-12-19T22:37:25.774Z,78.30
2022-12-19T22:40:28.354Z,78.08
2022-12-19T22:43:31.119Z,77.63
2022-12-19T22:46:35.070Z,77.98
2022-12-19T22:49:37.852Z,78.17
2022-12-19T22:52:41.742Z,77.58
2022-12-19T22:55:44.474Z,77.51
2022-12-19T22:58:48.653Z,77.63
2022-12-19T23:01:51.526Z,77.96
2022-12-19T23:04:54.334Z,77.86
2022-12-19T23:07:58.468Z,77.94
2022-12-19T23:11:01.133Z,77.94
2022-12-19T23:14:04.960Z,78.12
2022-12-19T23:17:07.594Z,78.17
2022-12-19T23:20:10.598Z,78.22
2022-12-19T23:23:14.636Z,78.47
2022-12-19T23:26:19.971Z,78.15
2022-12-19T23:29:22.536Z,78.25
2022-12-19T23:32:25.090Z,78.31
2022-12-19T23:35:28.000Z,78.40
2022-12-19T23:38:32.024Z,77.75
2022-12-19T23:41:34.672Z,78.34
2022-12-19T23:44:37.338Z,78.51
2022-12-19T23:47:40.144Z,78.96
2022-12-19T23:50:42.695Z,79.12
2022-12-19T23:53:47.505Z,79.05
2022-12-19T23:56:50.088Z,79.04
2022-12-19T23:59:52.672Z,79.33
